Time;durP1;ratioP1;P1;durP2;ratioP2;P2;SDS_P1;SDS_P2;PMS_P1;PMS_P2;Temp;Humidity;BMP_temperature;BMP_pressure;BME280_temperature;BME280_humidity;BME280_pressure;Samples;Min_cycle;Max_cycle;Signal;HPM_P1;HPM_P2
2021/08/23 00:00:35;;;;;;;5.75;4.00;;;14.40;99.90;;;;;;6178482;28;20043;-81
2021/08/23 00:03:36;;;;;;;5.80;4.20;;;14.30;99.90;;;;;;6179003;28;20030;-82
2021/08/23 00:06:37;;;;;;;10.73;4.93;;;;;;;;;;6161384;28;20435;-81
2021/08/23 00:09:38;;;;;;;5.75;3.92;;;;;;;;;;6178266;28;20030;-80
2021/08/23 00:12:39;;;;;;;5.38;4.45;;;14.10;99.90;;;;;;6160845;28;20022;-80
2021/08/23 00:15:40;;;;;;;7.82;3.83;;;14.20;99.90;;;;;;6160693;28;20441;-82
2021/08/23 00:18:40;;;;;;;5.10;4.15;;;14.40;99.90;;;;;;6178695;28;20054;-80
2021/08/23 00:21:43;;;;;;;8.07;3.92;;;14.20;99.90;;;;;;6178048;28;20042;-79
2021/08/23 00:24:43;;;;;;;4.43;3.50;;;14.20;99.90;;;;;;6177932;28;20066;-79
2021/08/23 00:27:44;;;;;;;6.00;3.92;;;14.40;99.90;;;;;;6160634;28;20346;-79
2021/08/23 00:30:45;;;;;;;6.75;4.10;;;14.20;99.90;;;;;;6178007;28;20481;-79
2021/08/23 00:33:45;;;;;;;6.72;3.90;;;14.10;99.90;;;;;;6160300;28;20077;-81
2021/08/23 00:36:46;;;;;;;5.60;4.40;;;14.00;99.90;;;;;;6160892;28;20450;-77
2021/08/23 00:39:47;;;;;;;8.43;3.80;;;13.60;99.90;;;;;;6159852;28;20525;-78
2021/08/23 00:42:47;;;;;;;6.50;3.80;;;14.00;99.90;;;;;;6160009;28;20031;-79
2021/08/23 00:45:48;;;;;;;6.07;4.13;;;13.80;99.90;;;;;;6177253;28;20030;-79
2021/08/23 00:48:50;;;;;;;9.23;4.13;;;13.60;99.90;;;;;;6176393;28;20458;-82
2021/08/23 00:51:53;;;;;;;4.93;3.58;;;13.70;99.90;;;;;;6177391;28;20038;-82
2021/08/23 00:54:54;;;;;;;6.53;4.18;;;13.70;99.90;;;;;;6159796;28;20033;-79
2021/08/23 00:57:54;;;;;;;8.30;4.40;;;13.60;99.90;;;;;;6160058;28;20377;-78
2021/08/23 01:00:58;;;;;;;8.13;4.30;;;14.00;99.90;;;;;;6177327;28;20031;-79
2021/08/23 01:04:05;;;;;;;6.35;3.90;;;13.80;99.90;;;;;;6175751;28;20480;-78
2021/08/23 01:07:08;;;;;;;8.70;4.40;;;13.70;99.90;;;;;;6159892;28;20031;-80
2021/08/23 01:10:15;;;;;;;6.82;3.80;;;13.70;99.90;;;;;;6176994;28;20030;-80
2021/08/23 01:13:15;;;;;;;5.45;4.10;;;13.60;99.90;;;;;;6160295;28;20036;-80
2021/08/23 01:16:16;;;;;;;6.28;3.90;;;13.60;99.90;;;;;;6160581;28;20115;-82
2021/08/23 01:19:17;;;;;;;4.95;4.10;;;13.30;99.90;;;;;;6159439;28;20027;-78
2021/08/23 01:22:18;;;;;;;4.45;3.88;;;13.30;99.90;;;;;;6159090;28;20049;-78
2021/08/23 01:25:33;;;;;;;4.63;4.10;;;13.40;99.90;;;;;;6176425;28;20481;-81
2021/08/23 01:28:48;;;;;;;5.93;3.83;;;13.50;99.90;;;;;;6160181;28;20026;-78
2021/08/23 01:31:51;;;;;;;4.70;3.92;;;13.40;99.90;;;;;;6176890;28;20029;-79
2021/08/23 01:34:53;;;;;;;5.30;3.72;;;13.30;99.90;;;;;;6176509;28;20077;-79
2021/08/23 01:37:54;;;;;;;10.93;4.40;;;13.40;99.90;;;;;;6175996;28;20042;-78
2021/08/23 01:41:01;;;;;;;5.00;4.13;;;13.20;99.90;;;;;;6174724;28;20420;-81
2021/08/23 01:44:02;;;;;;;7.93;4.60;;;13.10;99.90;;;;;;6158842;28;20023;-82
2021/08/23 01:47:03;;;;;;;6.43;4.20;;;13.20;99.90;;;;;;6175867;28;20023;-80
2021/08/23 01:50:04;;;;;;;4.03;3.47;;;13.20;99.90;;;;;;6176154;28;20031;-79
2021/08/23 01:53:04;;;;;;;8.15;3.58;;;12.90;99.90;;;;;;6175693;28;20031;-79
2021/08/23 01:56:05;;;;;;;7.65;3.78;;;13.10;99.90;;;;;;6175672;28;20026;-79
2021/08/23 01:59:06;;;;;;;5.85;3.88;;;;;;;;;;6159939;28;20109;-77
2021/08/23 02:02:06;;;;;;;7.78;3.72;;;12.80;99.90;;;;;;6159035;28;20034;-82
2021/08/23 02:05:07;;;;;;;4.75;3.75;;;13.00;99.90;;;;;;6158388;28;20033;-80
2021/08/23 02:08:08;;;;;;;6.00;3.92;;;13.50;99.90;;;;;;6175262;28;20350;-82
2021/08/23 02:11:09;;;;;;;6.13;3.65;;;13.00;99.90;;;;;;6158297;28;20354;-79
2021/08/23 02:14:10;;;;;;;6.43;4.45;;;12.80;99.90;;;;;;6175188;28;20023;-82
2021/08/23 02:17:10;;;;;;;5.85;4.00;;;13.00;99.90;;;;;;6160359;28;20027;-80
2021/08/23 02:20:11;;;;;;;5.57;3.67;;;13.20;99.90;;;;;;6175101;28;20050;-81
2021/08/23 02:23:12;;;;;;;5.55;3.97;;;12.90;99.90;;;;;;6175321;28;20110;-78
2021/08/23 02:26:12;;;;;;;6.97;3.65;;;12.80;99.90;;;;;;6175019;28;20485;-81
2021/08/23 02:29:13;;;;;;;4.97;3.72;;;12.90;99.90;;;;;;6175155;28;20034;-78
2021/08/23 02:32:13;;;;;;;4.75;3.42;;;12.90;99.90;;;;;;6175387;28;20025;-78
2021/08/23 02:35:14;;;;;;;5.38;3.70;;;13.00;99.90;;;;;;6158685;28;20031;-78
2021/08/23 02:38:15;;;;;;;7.10;3.83;;;13.10;99.90;;;;;;6157682;28;20053;-80
2021/08/23 02:41:16;;;;;;;5.68;3.42;;;12.90;99.90;;;;;;6157564;28;20042;-81
2021/08/23 02:44:16;;;;;;;5.38;3.80;;;12.80;99.90;;;;;;6175367;28;20037;-82
2021/08/23 02:47:17;;;;;;;4.22;3.60;;;12.70;99.90;;;;;;6175478;28;20027;-80
2021/08/23 02:50:17;;;;;;;6.35;3.85;;;12.80;99.90;;;;;;6141807;28;20457;-78
2021/08/23 02:53:18;;;;;;;6.90;4.30;;;12.80;99.90;;;;;;6174742;28;20031;-82
2021/08/23 02:56:19;;;;;;;4.40;3.97;;;12.70;99.90;;;;;;6157462;28;20029;-79
2021/08/23 02:59:19;;;;;;;4.07;3.60;;;12.90;99.90;;;;;;6174767;28;20026;-78
2021/08/23 03:02:20;;;;;;;4.70;3.35;;;12.80;99.90;;;;;;6174993;28;20035;-79
2021/08/23 03:05:20;;;;;;;5.30;4.38;;;13.40;99.90;;;;;;6157949;28;20023;-79
2021/08/23 03:08:21;;;;;;;7.80;4.53;;;12.60;99.90;;;;;;6157586;28;20110;-82
2021/08/23 03:11:22;;;;;;;6.07;4.35;;;12.70;99.90;;;;;;6161925;28;20019;-81
2021/08/23 03:14:23;;;;;;;8.80;4.30;;;12.60;99.90;;;;;;6162067;28;20027;-78
2021/08/23 03:17:23;;;;;;;4.47;3.47;;;12.60;99.90;;;;;;6162293;28;20014;-81
2021/08/23 03:20:24;;;;;;;6.20;4.20;;;12.60;99.90;;;;;;6179262;28;20441;-81
2021/08/23 03:23:25;;;;;;;4.35;3.80;;;12.60;99.90;;;;;;6162189;28;20034;-81
2021/08/23 03:26:25;;;;;;;5.35;3.83;;;12.40;99.90;;;;;;6161965;28;20037;-82
2021/08/23 03:29:26;;;;;;;4.40;3.60;;;12.60;99.90;;;;;;6162049;28;20029;-79
2021/08/23 03:32:26;;;;;;;5.63;4.05;;;12.50;99.90;;;;;;6179155;28;20030;-79
2021/08/23 03:35:27;;;;;;;5.43;3.53;;;12.40;99.90;;;;;;6178837;28;20530;-80
2021/08/23 03:38:28;;;;;;;4.82;3.60;;;12.50;99.90;;;;;;6179103;28;20062;-81
2021/08/23 03:41:29;;;;;;;5.13;4.63;;;;;;;;;;6179000;28;20046;-78
2021/08/23 03:44:29;;;;;;;5.40;4.30;;;12.50;99.90;;;;;;6179156;28;20034;-79
2021/08/23 03:47:30;;;;;;;5.00;3.80;;;12.50;99.90;;;;;;6178550;28;20102;-81
2021/08/23 03:50:30;;;;;;;7.03;4.28;;;12.60;99.90;;;;;;6161353;28;20042;-79
2021/08/23 03:53:31;;;;;;;4.00;3.60;;;12.70;99.90;;;;;;6161284;28;20077;-79
2021/08/23 03:56:32;;;;;;;5.65;4.00;;;;;;;;;;6178433;28;20027;-81
2021/08/23 03:59:33;;;;;;;4.60;4.20;;;12.60;99.90;;;;;;6145235;28;20023;-82
2021/08/23 04:02:34;;;;;;;7.30;3.85;;;12.60;99.90;;;;;;6178443;28;20114;-81
2021/08/23 04:05:35;;;;;;;5.50;3.60;;;12.60;99.90;;;;;;6161216;28;20478;-80
2021/08/23 04:08:35;;;;;;;4.68;3.92;;;12.60;99.90;;;;;;6178331;28;20027;-81
2021/08/23 04:11:36;;;;;;;5.30;4.18;;;;;;;;;;6178325;28;20031;-79
2021/08/23 04:14:37;;;;;;;8.93;4.90;;;12.40;99.90;;;;;;6178048;28;20050;-81
2021/08/23 04:17:37;;;;;;;6.60;4.65;;;12.40;99.90;;;;;;6178207;28;20027;-79
2021/08/23 04:20:38;;;;;;;5.93;4.72;;;12.40;99.90;;;;;;6160656;28;20034;-78
2021/08/23 04:23:39;;;;;;;5.47;4.35;;;12.30;99.90;;;;;;6177157;28;20524;-80
2021/08/23 04:26:39;;;;;;;9.27;6.03;;;12.40;99.90;;;;;;6177952;28;20026;-80
2021/08/23 04:29:40;;;;;;;7.97;4.90;;;12.30;99.90;;;;;;6177882;28;20031;-79
2021/08/23 04:32:40;;;;;;;5.65;4.82;;;12.40;99.90;;;;;;6177800;28;20403;-79
2021/08/23 04:35:41;;;;;;;6.05;4.32;;;;;;;;;;6177619;28;20094;-79
2021/08/23 04:38:42;;;;;;;9.10;4.65;;;;;;;;;;6177684;28;20047;-79
2021/08/23 04:41:43;;;;;;;5.43;4.10;;;12.50;99.90;;;;;;6177446;28;20031;-80
2021/08/23 04:44:44;;;;;;;8.95;4.35;;;12.50;99.90;;;;;;6177766;28;20074;-83
2021/08/23 04:47:44;;;;;;;5.43;4.35;;;12.50;99.90;;;;;;6177634;28;20026;-80
2021/08/23 04:50:45;;;;;;;8.48;6.55;;;12.60;99.90;;;;;;6177480;28;20019;-81
2021/08/23 04:53:45;;;;;;;11.77;9.25;;;11.40;99.90;;;;;;6177552;28;20025;-79
2021/08/23 04:56:47;;;;;;;6.78;4.25;;;12.70;99.90;;;;;;6160398;28;20026;-79
2021/08/23 04:59:48;;;;;;;7.68;4.05;;;12.60;99.90;;;;;;6159831;28;20377;-79
2021/08/23 05:02:49;;;;;;;5.30;4.10;;;;;;;;;;6176867;28;20038;-78
2021/08/23 05:05:50;;;;;;;6.78;3.80;;;12.80;99.90;;;;;;6177211;28;20077;-78
2021/08/23 05:08:50;;;;;;;7.22;4.63;;;13.40;99.90;;;;;;6143798;28;20383;-79
2021/08/23 05:11:51;;;;;;;6.70;4.93;;;12.90;99.90;;;;;;6177109;28;20453;-79
2021/08/23 05:14:51;;;;;;;5.10;4.00;;;13.00;99.90;;;;;;6176874;28;20073;-78
2021/08/23 05:17:52;;;;;;;5.57;4.03;;;;;;;;;;6159724;28;20479;-78
2021/08/23 05:20:53;;;;;;;5.53;4.00;;;12.90;99.90;;;;;;6177173;28;20023;-83
2021/08/23 05:23:54;;;;;;;8.27;3.92;;;12.90;99.90;;;;;;6176907;28;20475;-83
2021/08/23 05:26:54;;;;;;;6.15;3.80;;;13.00;99.90;;;;;;6176667;28;20147;-80
2021/08/23 05:29:55;;;;;;;6.20;4.20;;;13.10;99.90;;;;;;6176981;28;20034;-80
2021/08/23 05:32:55;;;;;;;6.00;4.28;;;13.10;99.90;;;;;;6142899;28;20445;-80
2021/08/23 05:35:56;;;;;;;6.00;4.40;;;13.10;99.90;;;;;;6176360;28;20026;-80
2021/08/23 05:38:56;;;;;;;5.22;4.28;;;13.10;99.90;;;;;;6176257;28;20101;-83
2021/08/23 05:41:57;;;;;;;8.70;5.18;;;;;;;;;;6176439;28;20038;-80
2021/08/23 05:44:58;;;;;;;7.60;4.00;;;13.30;99.90;;;;;;6176226;28;20034;-81
2021/08/23 05:47:59;;;;;;;8.90;4.10;;;14.20;99.90;;;;;;6176148;28;20019;-79
2021/08/23 05:51:01;;;;;;;6.45;3.85;;;;;;;;;;6175872;28;20023;-83
2021/08/23 05:54:02;;;;;;;6.00;3.50;;;16.30;99.90;;;;;;6176248;28;20019;-80
2021/08/23 05:57:03;;;;;;;4.28;3.53;;;17.00;99.90;;;;;;6158474;28;20026;-79
2021/08/23 06:00:05;;;;;;;4.10;3.70;;;17.80;99.90;;;;;;6175615;28;20047;-82
2021/08/23 06:03:06;;;;;;;4.57;3.50;;;18.30;99.90;;;;;;6158806;28;20038;-80
2021/08/23 06:06:07;;;;;;;4.43;3.05;;;18.50;99.90;;;;;;6158610;28;20031;-80
2021/08/23 06:09:07;;;;;;;6.85;3.60;;;;;;;;;;6158343;28;20039;-81
2021/08/23 06:12:08;;;;;;;3.88;3.17;;;19.10;99.90;;;;;;6176083;28;20015;-81
2021/08/23 06:15:09;;;;;;;5.20;3.20;;;18.80;99.90;;;;;;6142433;28;20027;-81
2021/08/23 06:18:10;;;;;;;5.82;3.30;;;18.30;99.90;;;;;;6175220;28;20019;-80
2021/08/23 06:21:10;;;;;;;3.80;3.00;;;18.50;99.90;;;;;;6142359;28;20031;-79
2021/08/23 06:24:11;;;;;;;4.85;3.35;;;17.50;99.90;;;;;;6158322;28;20046;-77
2021/08/23 06:27:12;;;;;;;5.55;3.20;;;17.00;99.90;;;;;;6175229;28;20023;-83
2021/08/23 06:30:13;;;;;;;6.35;3.58;;;16.80;99.90;;;;;;6175498;28;20027;-79
2021/08/23 06:33:13;;;;;;;4.38;3.17;;;16.70;99.90;;;;;;6157873;28;20068;-79
2021/08/23 06:36:14;;;;;;;6.47;3.58;;;16.90;99.90;;;;;;6175361;28;20023;-81
2021/08/23 06:39:14;;;;;;;3.78;3.10;;;17.40;99.90;;;;;;6149744;28;20087;-78
2021/08/23 06:42:15;;;;;;;6.85;3.28;;;17.30;99.90;;;;;;6153452;28;20046;-78
2021/08/23 06:45:16;;;;;;;6.55;3.55;;;17.30;99.90;;;;;;6153991;28;20037;-83
2021/08/23 06:48:16;;;;;;;5.53;3.47;;;17.30;99.90;;;;;;6151305;29;20433;-79
2021/08/23 06:51:20;;;;;;;6.10;3.40;;;17.10;99.90;;;;;;6151081;28;20031;-78
2021/08/23 06:54:21;;;;;;;3.88;3.20;;;17.10;99.90;;;;;;6150840;28;20050;-79
2021/08/23 06:57:21;;;;;;;4.18;3.13;;;16.90;99.90;;;;;;6150839;29;20055;-80
2021/08/23 07:00:22;;;;;;;4.63;3.40;;;17.00;99.90;;;;;;6151222;29;20513;-80
2021/08/23 07:03:23;;;;;;;4.32;3.15;;;17.20;99.90;;;;;;6149559;28;20113;-83
2021/08/23 07:06:23;;;;;;;4.65;3.17;;;17.30;99.90;;;;;;6150086;29;20083;-80
2021/08/23 07:09:24;;;;;;;4.28;2.80;;;17.90;99.90;;;;;;6149355;28;20028;-79
2021/08/23 07:12:25;;;;;;;5.55;3.50;;;;;;;;;;6150634;28;20111;-80
2021/08/23 07:15:26;;;;;;;4.47;2.92;;;18.20;99.90;;;;;;6150739;28;20019;-78
2021/08/23 07:18:28;;;;;;;4.65;3.50;;;18.30;99.90;;;;;;6150591;28;20024;-80
2021/08/23 07:21:29;;;;;;;3.60;2.95;;;18.50;99.90;;;;;;6150835;28;20031;-81
2021/08/23 07:24:30;;;;;;;5.10;3.40;;;18.80;99.90;;;;;;6150827;29;20366;-79
2021/08/23 07:27:32;;;;;;;3.92;3.17;;;19.10;99.90;;;;;;6150491;29;20099;-80
2021/08/23 07:30:32;;;;;;;;;;;19.40;99.90;;;;;;6150802;28;20031;-79
2021/08/23 07:33:33;;;;;;;4.03;3.20;;;19.60;99.90;;;;;;6150513;28;19945;-80
2021/08/23 07:36:34;;;;;;;3.88;3.17;;;;;;;;;;6149647;29;20465;-81
2021/08/23 07:39:34;;;;;;;4.75;2.90;;;19.90;99.90;;;;;;6171302;28;20397;-79
2021/08/23 07:42:35;;;;;;;7.03;3.22;;;20.30;99.90;;;;;;6174175;28;20039;-80
2021/08/23 07:45:36;;;;;;;5.65;3.20;;;20.20;99.90;;;;;;6174506;28;20037;-78
2021/08/23 07:48:36;;;;;;;3.85;3.25;;;20.70;99.90;;;;;;6174305;28;20073;-82
2021/08/23 07:51:37;;;;;;;3.92;3.10;;;20.60;99.90;;;;;;6157433;28;20031;-83
2021/08/23 07:54:37;;;;;;;6.32;3.55;;;20.90;99.90;;;;;;6174090;28;20453;-78
2021/08/23 07:57:45;;;;;;;3.67;3.00;;;21.00;99.90;;;;;;6177251;28;20159;-81
2021/08/23 08:00:45;;;;;;;5.68;3.13;;;20.90;99.90;;;;;;6161942;28;20093;-79
2021/08/23 08:03:46;;;;;;;4.65;3.10;;;20.70;99.90;;;;;;6178401;28;20023;-81
2021/08/23 08:06:46;;;;;;;4.35;3.08;;;20.60;99.90;;;;;;6161304;28;20023;-82
2021/08/23 08:09:47;;;;;;;4.18;3.10;;;20.60;99.90;;;;;;6178543;28;20441;-81
2021/08/23 08:12:48;;;;;;;6.00;3.40;;;;;;;;;;6178266;28;20037;-79
2021/08/23 08:15:49;;;;;;;4.70;2.92;;;20.70;99.90;;;;;;6178059;28;20046;-78
2021/08/23 08:18:49;;;;;;;4.22;2.70;;;19.50;99.90;;;;;;6178076;28;20023;-82
2021/08/23 08:21:50;;;;;;;4.38;2.90;;;20.60;99.90;;;;;;6178049;28;20035;-82
2021/08/23 08:24:51;;;;;;;5.95;3.20;;;20.60;99.90;;;;;;6178371;28;20027;-79
2021/08/23 08:27:51;;;;;;;5.10;3.08;;;20.60;99.90;;;;;;6178023;28;20135;-78
2021/08/23 08:30:52;;;;;;;4.65;2.97;;;20.60;99.90;;;;;;6160819;28;20030;-83
2021/08/23 08:33:53;;;;;;;3.97;2.90;;;20.70;99.90;;;;;;6177997;28;20330;-80
2021/08/23 08:36:53;;;;;;;5.10;2.78;;;20.70;99.90;;;;;;6160477;28;20036;-81
2021/08/23 08:39:54;;;;;;;4.82;3.10;;;20.70;99.90;;;;;;6177844;28;20046;-82
2021/08/23 08:42:55;;;;;;;4.47;2.92;;;20.80;99.90;;;;;;6160290;28;20027;-79
2021/08/23 08:45:55;;;;;;;4.85;2.92;;;20.80;99.90;;;;;;6160304;28;20049;-78
2021/08/23 08:48:56;;;;;;;4.35;2.75;;;20.80;99.90;;;;;;6160369;28;20023;-80
2021/08/23 08:51:57;;;;;;;3.90;2.70;;;20.90;99.90;;;;;;6160099;28;20420;-80
2021/08/23 08:54:57;;;;;;;4.50;2.95;;;20.90;99.90;;;;;;6160664;28;20027;-84
2021/08/23 08:57:58;;;;;;;4.43;3.38;;;21.00;99.90;;;;;;6160895;28;20093;-80
2021/08/23 09:00:58;;;;;;;4.68;3.25;;;20.90;99.90;;;;;;6177546;28;20077;-80
2021/08/23 09:04:03;;;;;;;4.28;2.90;;;21.00;99.90;;;;;;6159843;28;20027;-78
2021/08/23 09:07:06;;;;;;;5.53;3.03;;;20.80;99.90;;;;;;6177255;28;20150;-80
2021/08/23 09:10:18;;;;;;;;;;;20.90;99.90;;;;;;6159674;28;20019;-78
2021/08/23 09:13:19;;;;;;;4.32;3.30;;;21.20;99.90;;;;;;6176928;28;19902;-82
2021/08/23 09:16:28;;;;;;;5.25;2.90;;;21.40;99.90;;;;;;6177585;28;20107;-79
2021/08/23 09:19:30;;;;;;;4.80;2.80;;;21.40;99.90;;;;;;6160432;28;20034;-81
2021/08/23 09:22:30;;;;;;;6.10;3.05;;;21.30;99.90;;;;;;6176670;28;20074;-80
2021/08/23 09:25:31;;;;;;;5.22;3.15;;;21.10;99.90;;;;;;6176788;28;20354;-78
2021/08/23 09:28:32;;;;;;;4.65;3.08;;;;;;;;;;6159722;28;20544;-80
2021/08/23 09:31:38;;;;;;;5.35;3.53;;;20.90;99.90;;;;;;6159481;28;20050;-80
2021/08/23 09:34:44;;;;;;;4.43;2.90;;;20.80;99.90;;;;;;6176764;28;20114;-78
2021/08/23 09:37:48;;;;;;;3.47;2.80;;;20.80;99.90;;;;;;6176577;28;20042;-81
2021/08/23 09:40:51;;;;;;;7.75;3.35;;;20.50;99.90;;;;;;6159027;28;20560;-82
2021/08/23 09:44:05;;;;;;;3.65;2.90;;;20.40;99.90;;;;;;6176916;28;20042;-81
2021/08/23 09:47:06;;;;;;;5.45;2.67;;;20.30;99.90;;;;;;6160213;28;20405;-79
2021/08/23 09:50:16;;;;;;;3.30;2.90;;;20.20;99.90;;;;;;6176047;28;20027;-78
2021/08/23 09:53:20;;;;;;;4.70;3.08;;;20.20;99.90;;;;;;6176051;28;20043;-80
2021/08/23 09:56:20;;;;;;;3.15;2.70;;;20.30;99.90;;;;;;6175899;28;20034;-79
2021/08/23 09:59:28;;;;;;;4.93;2.85;;;20.40;99.90;;;;;;6158600;28;20461;-79
2021/08/23 10:02:29;;;;;;;4.75;3.00;;;20.70;99.90;;;;;;6175990;28;20030;-79
2021/08/23 10:05:30;;;;;;;5.43;3.50;;;20.90;99.90;;;;;;6158434;28;20170;-80
2021/08/23 10:08:30;;;;;;;7.70;3.20;;;21.10;99.90;;;;;;6158453;28;20026;-79
2021/08/23 10:11:36;;;;;;;5.53;3.05;;;21.70;99.90;;;;;;6158225;28;20046;-82
2021/08/23 10:14:36;;;;;;;5.20;3.38;;;22.10;98.40;;;;;;6158986;28;20057;-78
2021/08/23 10:17:37;;;;;;;4.40;2.92;;;22.40;99.10;;;;;;6158451;28;20022;-82
2021/08/23 10:20:39;;;;;;;4.30;2.90;;;22.60;98.50;;;;;;6175512;28;20381;-78
2021/08/23 10:23:39;;;;;;;5.00;3.50;;;22.90;97.80;;;;;;6175683;28;20802;-81
2021/08/23 10:26:45;;;;;;;5.03;3.40;;;22.90;97.80;;;;;;6158228;28;20033;-81
2021/08/23 10:29:46;;;;;;;4.68;3.22;;;;;;;;;;6175481;28;20106;-82
2021/08/23 10:32:46;;;;;;;4.68;3.25;;;23.10;99.90;;;;;;6157933;28;20023;-79
2021/08/23 10:35:52;;;;;;;6.80;3.70;;;23.20;98.90;;;;;;6175068;28;20019;-82
2021/08/23 10:39:03;;;;;;;6.25;3.70;;;23.20;99.60;;;;;;6141753;28;20050;-81
2021/08/23 10:42:10;;;;;;;4.40;3.22;;;23.00;99.00;;;;;;6174798;28;20145;-79
2021/08/23 10:45:12;;;;;;;5.70;3.35;;;22.40;97.70;;;;;;6175285;28;20057;-82
2021/08/23 10:48:13;;;;;;;;;;;22.40;98.30;;;;;;6175237;28;20038;-80
2021/08/23 10:51:25;;;;;;;4.30;3.10;;;22.30;99.30;;;;;;6175136;28;19902;-79
2021/08/23 10:54:27;;;;;;;5.63;3.63;;;22.20;99.90;;;;;;6159048;28;20027;-79
2021/08/23 10:57:27;;;;;;;5.50;3.38;;;22.40;99.90;;;;;;6174817;28;20093;-79
2021/08/23 11:00:34;;;;;;;5.35;3.22;;;22.70;98.60;;;;;;6174976;28;20023;-78
2021/08/23 11:03:34;;;;;;;5.45;3.20;;;22.40;99.90;;;;;;6174692;28;20023;-79
2021/08/23 11:06:37;;;;;;;6.55;3.60;;;22.30;98.30;;;;;;6157608;28;20488;-80
2021/08/23 11:09:42;;;;;;;5.40;3.03;;;22.20;98.90;;;;;;6157723;28;20019;-78
2021/08/23 11:12:46;;;;;;;4.78;3.15;;;21.80;98.00;;;;;;6174872;28;20418;-78
2021/08/23 11:15:47;;;;;;;5.10;3.50;;;21.50;99.70;;;;;;6174539;28;20041;-78
2021/08/23 11:18:47;;;;;;;6.75;4.35;;;21.20;99.90;;;;;;6175273;28;20031;-78
2021/08/23 11:21:58;;;;;;;4.47;3.35;;;21.10;99.90;;;;;;6157231;28;20113;-81
2021/08/23 11:24:58;;;;;;;4.90;3.53;;;21.10;99.90;;;;;;6157596;28;20038;-78
2021/08/23 11:28:00;;;;;;;5.65;3.58;;;21.00;99.90;;;;;;6174346;28;20442;-81
2021/08/23 11:31:03;;;;;;;6.22;3.40;;;20.90;99.90;;;;;;6158215;28;20364;-80
2021/08/23 11:34:04;;;;;;;6.10;3.25;;;21.10;99.90;;;;;;6162153;28;20142;-78
2021/08/23 11:37:06;;;;;;;4.47;3.17;;;21.00;99.90;;;;;;6161808;28;20031;-79
2021/08/23 11:40:07;;;;;;;5.68;3.20;;;20.90;99.90;;;;;;6179070;28;20767;-79
2021/08/23 11:43:08;;;;;;;5.40;3.38;;;21.10;99.90;;;;;;6178903;28;20037;-79
2021/08/23 11:46:09;;;;;;;7.03;3.72;;;21.00;99.90;;;;;;6161971;28;20015;-81
2021/08/23 11:49:09;;;;;;;4.88;3.13;;;20.90;99.90;;;;;;6178758;28;20346;-79
2021/08/23 11:52:14;;;;;;;4.95;2.90;;;20.80;99.90;;;;;;6161493;28;20027;-79
2021/08/23 11:55:25;;;;;;;4.20;3.47;;;20.90;99.90;;;;;;6161413;28;20031;-79
2021/08/23 11:58:35;;;;;;;6.65;3.38;;;20.90;99.90;;;;;;6179016;28;20046;-79
2021/08/23 12:01:36;;;;;;;4.78;3.42;;;20.80;99.90;;;;;;6178509;28;20122;-79
2021/08/23 12:04:36;;;;;;;6.00;3.50;;;20.70;99.90;;;;;;6178752;28;20072;-79
2021/08/23 12:07:47;;;;;;;5.63;3.70;;;20.60;99.90;;;;;;6161107;28;20041;-79
2021/08/23 12:10:59;;;;;;;11.93;4.32;;;20.60;99.90;;;;;;6162210;28;20484;-80
2021/08/23 12:13:59;;;;;;;6.13;3.87;;;20.10;99.90;;;;;;6178129;28;20057;-82
2021/08/23 12:17:07;;;;;;;6.78;4.22;;;20.20;99.90;;;;;;6178706;28;20022;-79
2021/08/23 12:20:08;;;;;;;6.95;3.85;;;20.00;99.90;;;;;;6144917;28;20031;-80
2021/08/23 12:23:08;;;;;;;6.20;3.40;;;19.90;99.90;;;;;;6178281;28;20031;-80
2021/08/23 12:26:09;;;;;;;5.05;3.95;;;20.10;99.90;;;;;;6160835;28;20026;-79
2021/08/23 12:29:16;;;;;;;6.63;4.10;;;19.80;99.90;;;;;;6178471;28;20500;-81
2021/08/23 12:32:16;;;;;;;8.50;4.15;;;19.90;99.90;;;;;;6177797;28;20038;-82
2021/08/23 12:35:28;;;;;;;7.25;3.90;;;20.00;99.90;;;;;;6177741;28;20027;-82
2021/08/23 12:38:28;;;;;;;9.57;4.10;;;20.00;99.90;;;;;;6144450;28;20066;-81
2021/08/23 12:41:29;;;;;;;7.32;3.92;;;20.10;99.90;;;;;;6177861;28;20034;-78
2021/08/23 12:44:30;;;;;;;6.70;4.03;;;;;;;;;;6176341;28;20031;-78
2021/08/23 12:47:33;;;;;;;8.05;4.43;;;19.90;99.90;;;;;;6161225;28;20029;-79
2021/08/23 12:51:27;;;;;;;7.68;4.63;;;20.20;99.90;;;;;;6147015;28;20029;-81
2021/08/23 12:54:28;;;;;;;8.13;4.18;;;19.80;99.90;;;;;;6100632;29;20419;-79
2021/08/23 12:57:29;;;;;;;6.13;4.93;;;19.70;99.90;;;;;;6103314;29;20047;-82
2021/08/23 13:00:32;;;;;;;6.22;4.18;;;19.70;99.90;;;;;;6103416;29;20036;-81
2021/08/23 13:03:32;;;;;;;6.28;3.50;;;19.90;99.90;;;;;;6103412;29;20175;-81
2021/08/23 13:06:33;;;;;;;5.55;3.80;;;19.90;99.90;;;;;;6087103;29;20459;-79
2021/08/23 13:09:34;;;;;;;5.45;3.50;;;19.90;99.90;;;;;;6087130;29;20036;-80
2021/08/23 13:12:34;;;;;;;5.53;3.35;;;20.30;99.90;;;;;;6102907;29;20469;-77
2021/08/23 13:15:35;;;;;;;5.30;3.72;;;20.60;99.90;;;;;;6103181;29;20375;-79
2021/08/23 13:18:36;;;;;;;7.57;3.45;;;20.40;99.90;;;;;;6142210;28;20039;-79
2021/08/23 13:21:37;;;;;;;17.65;6.00;;;20.40;99.90;;;;;;6177003;28;20031;-79
2021/08/23 13:24:40;;;;;;;9.63;5.05;;;20.50;99.90;;;;;;6159699;28;20376;-79
2021/08/23 13:27:41;;;;;;;4.25;3.05;;;20.50;99.90;;;;;;6176994;28;20027;-80
2021/08/23 13:30:42;;;;;;;4.93;3.42;;;20.60;99.90;;;;;;6176318;28;20061;-81
2021/08/23 13:33:43;;;;;;;4.68;3.45;;;20.60;99.90;;;;;;6158991;28;20023;-79
2021/08/23 13:36:44;;;;;;;5.55;3.17;;;20.70;99.90;;;;;;6159337;28;20373;-79
2021/08/23 13:39:45;;;;;;;6.13;3.40;;;20.70;99.90;;;;;;6176689;28;20062;-82
2021/08/23 13:42:45;;;;;;;6.03;3.35;;;20.70;99.90;;;;;;6176510;28;20030;-79
2021/08/23 13:45:46;;;;;;;8.43;3.72;;;20.70;99.90;;;;;;6176498;28;20050;-79
2021/08/23 13:48:46;;;;;;;5.13;3.47;;;20.70;99.90;;;;;;6159364;28;20350;-78
2021/08/23 13:51:47;;;;;;;7.80;4.13;;;20.70;99.90;;;;;;6175818;28;20035;-81
2021/08/23 13:54:48;;;;;;;6.32;3.80;;;20.70;99.90;;;;;;6158595;28;20027;-82
2021/08/23 13:57:48;;;;;;;5.97;3.22;;;20.80;99.90;;;;;;6176282;28;20029;-79
2021/08/23 14:00:49;;;;;;;7.07;4.07;;;20.80;99.90;;;;;;6176114;28;20034;-80
2021/08/23 14:03:49;;;;;;;5.57;3.20;;;20.90;99.90;;;;;;6175981;28;20027;-82
2021/08/23 14:06:50;;;;;;;5.28;3.90;;;21.10;99.90;;;;;;6158421;28;20446;-80
2021/08/23 14:09:51;;;;;;;5.15;3.10;;;21.30;99.90;;;;;;6175677;28;20372;-81
2021/08/23 14:12:51;;;;;;;7.75;3.95;;;21.30;99.90;;;;;;6158257;28;20022;-80
2021/08/23 14:15:52;;;;;;;4.65;3.28;;;21.50;99.90;;;;;;6158308;28;20081;-79
2021/08/23 14:18:55;;;;;;;6.80;3.45;;;21.60;99.90;;;;;;6158430;28;20026;-82
2021/08/23 14:21:55;;;;;;;5.65;3.55;;;21.60;99.90;;;;;;6175579;28;20042;-78
2021/08/23 14:24:56;;;;;;;4.43;3.08;;;22.00;99.90;;;;;;6142215;28;20030;-79
2021/08/23 14:27:56;;;;;;;4.63;3.30;;;21.80;99.90;;;;;;6175498;28;20023;-79
2021/08/23 14:30:57;;;;;;;4.95;3.25;;;21.90;99.90;;;;;;6158091;28;20117;-81
2021/08/23 14:33:57;;;;;;;7.25;4.00;;;22.00;99.90;;;;;;6175361;28;20072;-82
2021/08/23 14:36:58;;;;;;;4.93;3.70;;;22.00;99.90;;;;;;6141909;28;20035;-79
2021/08/23 14:39:59;;;;;;;5.82;3.45;;;22.00;99.90;;;;;;6157856;28;20042;-79
2021/08/23 14:42:59;;;;;;;5.35;3.42;;;22.00;99.90;;;;;;6175205;28;20038;-82
2021/08/23 14:46:00;;;;;;;4.97;3.40;;;22.00;99.90;;;;;;6174942;28;20440;-80
2021/08/23 14:49:07;;;;;;;3.78;3.08;;;22.20;99.90;;;;;;6175099;28;20031;-81
2021/08/23 14:52:07;;;;;;;5.20;3.38;;;22.40;99.90;;;;;;6158665;28;20487;-78
2021/08/23 14:55:08;;;;;;;5.28;3.63;;;22.50;99.90;;;;;;6157623;28;20030;-79
2021/08/23 14:58:09;;;;;;;6.25;3.65;;;22.80;99.90;;;;;;6174737;28;20532;-78
2021/08/23 15:01:11;;;;;;;3.88;2.85;;;22.90;99.90;;;;;;6157366;28;20365;-79
2021/08/23 15:04:12;;;;;;;4.45;3.38;;;23.00;99.90;;;;;;6141989;28;20030;-81
2021/08/23 15:07:14;;;;;;;4.03;3.05;;;22.90;99.90;;;;;;6156643;28;20102;-80
2021/08/23 15:10:14;;;;;;;4.32;3.13;;;22.70;99.90;;;;;;6174688;28;20053;-79
2021/08/23 15:13:16;;;;;;;4.47;3.25;;;22.60;99.90;;;;;;6157376;28;20113;-79
2021/08/23 15:16:16;;;;;;;3.78;3.10;;;22.30;99.90;;;;;;6175035;28;20038;-79
2021/08/23 15:19:17;;;;;;;4.20;3.03;;;22.20;99.90;;;;;;6175199;28;20035;-80
2021/08/23 15:22:18;;;;;;;6.65;2.83;;;22.20;99.90;;;;;;6174534;28;20053;-80
2021/08/23 15:25:18;;;;;;;15.63;3.63;;;19.80;99.90;;;;;;6174507;28;20027;-79
2021/08/23 15:28:19;;;;;;;5.97;3.25;;;21.80;99.90;;;;;;6174640;28;20031;-78
2021/08/23 15:31:19;;;;;;;5.35;2.83;;;21.80;99.90;;;;;;6141533;28;20030;-79
2021/08/23 15:34:20;;;;;;;9.88;3.90;;;21.90;99.90;;;;;;6157276;28;20023;-80
2021/08/23 15:37:21;;;;;;;4.65;3.30;;;21.90;99.90;;;;;;6174457;28;20404;-80
2021/08/23 15:40:22;;;;;;;5.47;3.50;;;21.70;99.90;;;;;;6174523;28;20405;-80
2021/08/23 15:43:23;;;;;;;5.07;3.47;;;21.30;99.90;;;;;;6157013;28;20038;-78
2021/08/23 15:46:24;;;;;;;4.97;3.43;;;21.40;99.90;;;;;;6157200;28;20038;-80
2021/08/23 15:49:24;;;;;;;6.07;3.25;;;21.30;99.90;;;;;;6157503;28;20453;-80
2021/08/23 15:52:25;;;;;;;6.03;3.70;;;21.20;99.90;;;;;;6156803;28;20225;-80